Terminal Aerodrome Forecast
Issued by NWS Sioux Falls, SD

Home | Current Version | Previous Version | Text Only | Print | Product List | Glossary On
Versions: 1 2 3 4 5 6 7 8 9 10 11 12 13 14
000
FTUS43 KFSD 032340
TAFHON
TAF
KHON 032340Z 0400/0424 30012KT P6SM SCT150
     FM040500 29007KT P6SM SCT040 BKN150
     FM041300 33012KT P6SM BKN035
     FM041600 33017G24KT P6SM SCT025 BKN035=

USA.gov is the U.S. government's official web portal to all federal, state and local government web resources and services.